Terminal Aerodrome Forecast
Issued by NWS Des Moines, IA

Current Version | Previous Version | Text Only | Print | Product List | Glossary On
Versions: 1 2 3 4 5 6 7 8 9 10 11 12 13 14 15 16 17 18
000
FTUS43 KDMX 240520
TAFALO
TAF
KALO 240520Z 2406/2506 16006KT P6SM SKC
     FM240900 21007KT P6SM BKN130
     FM241500 31011KT P6SM SKC
     FM250000 VRB03KT P6SM SKC=

USA.gov is the U.S. government's official web portal to all federal, state and local government web resources and services.